Time;durP1;ratioP1;P1;durP2;ratioP2;P2;SDS_P1;SDS_P2;PMS_P1;PMS_P2;Temp;Humidity;BMP_temperature;BMP_pressure;BME280_temperature;BME280_humidity;BME280_pressure;Samples;Min_cycle;Max_cycle;Signal;HPM_P1;HPM_P2
2023/12/26 00:00:30;;;;;;;1.70;0.90;;;13.50;86.30;;;;;;5055501;28;20104;-62
2023/12/26 00:02:57;;;;;;;1.00;0.90;;;13.50;86.30;;;;;;5052607;28;20020;-62
2023/12/26 00:05:23;;;;;;;2.08;0.90;;;13.50;86.30;;;;;;5055392;28;20446;-63
2023/12/26 00:07:49;;;;;;;2.90;0.80;;;13.50;86.30;;;;;;5055590;28;20028;-62
2023/12/26 00:10:15;;;;;;;2.00;0.93;;;13.50;86.30;;;;;;5054316;28;20473;-63
2023/12/26 00:12:44;;;;;;;0.70;0.70;;;13.40;86.20;;;;;;5054171;28;20516;-63
2023/12/26 00:15:10;;;;;;;1.77;0.95;;;13.50;86.30;;;;;;5054432;28;20339;-62
2023/12/26 00:17:36;;;;;;;2.42;1.13;;;13.50;86.30;;;;;;5054619;28;20147;-62
2023/12/26 00:20:04;;;;;;;2.35;1.00;;;13.40;86.20;;;;;;5053786;28;20413;-63
2023/12/26 00:22:30;;;;;;;0.80;0.70;;;13.40;86.20;;;;;;5055259;28;20438;-63
2023/12/26 00:24:56;;;;;;;1.70;0.80;;;13.40;86.20;;;;;;5054810;28;20020;-62
2023/12/26 00:27:22;;;;;;;1.30;0.75;;;13.50;86.20;;;;;;5053902;28;20057;-62
2023/12/26 00:29:48;;;;;;;2.17;0.90;;;13.40;86.10;;;;;;5054999;28;20069;-63
2023/12/26 00:32:15;;;;;;;1.98;0.90;;;13.40;86.70;;;;;;5054015;28;20033;-62
2023/12/26 00:34:41;;;;;;;2.08;0.88;;;13.40;86.00;;;;;;5035271;28;20454;-62
2023/12/26 00:37:07;;;;;;;2.38;0.80;;;13.40;86.00;;;;;;5053798;28;20040;-63
2023/12/26 00:39:34;;;;;;;3.60;1.13;;;13.40;86.10;;;;;;5053123;28;20534;-62
2023/12/26 00:42:01;;;;;;;0.98;0.75;;;13.30;86.00;;;;;;5037318;28;20021;-62
2023/12/26 00:44:28;;;;;;;1.08;0.60;;;13.30;86.00;;;;;;5053943;28;20017;-63
2023/12/26 00:46:53;;;;;;;0.85;0.60;;;13.40;85.90;;;;;;5055440;28;20071;-62
2023/12/26 00:49:20;;;;;;;1.38;0.70;;;13.40;85.90;;;;;;5053491;28;20040;-62
2023/12/26 00:51:46;;;;;;;0.80;0.65;;;13.40;85.80;;;;;;5055227;28;20024;-62
2023/12/26 00:54:12;;;;;;;2.30;0.93;;;13.30;85.70;;;;;;5053992;28;20346;-62
2023/12/26 00:56:38;;;;;;;0.60;0.60;;;13.30;85.80;;;;;;5055039;28;20025;-62
2023/12/26 00:59:03;;;;;;;3.40;0.93;;;13.30;85.80;;;;;;5056174;28;20025;-62
2023/12/26 01:01:30;;;;;;;1.20;0.52;;;13.30;85.70;;;;;;5053759;28;20636;-62
2023/12/26 01:03:56;;;;;;;2.30;0.73;;;13.40;85.80;;;;;;5053971;28;20029;-62
2023/12/26 01:06:22;;;;;;;1.48;0.60;;;13.30;85.80;;;;;;5053837;28;20048;-62
2023/12/26 01:08:47;;;;;;;1.27;0.65;;;13.30;85.70;;;;;;5053892;28;20334;-63
2023/12/26 01:11:13;;;;;;;0.50;0.50;;;13.30;85.70;;;;;;5054380;28;20035;-62
2023/12/26 01:13:39;;;;;;;2.13;0.70;;;13.30;85.70;;;;;;5053105;28;20489;-62
2023/12/26 01:16:05;;;;;;;3.10;0.95;;;13.30;85.70;;;;;;5053351;28;20043;-62
2023/12/26 01:18:32;;;;;;;5.53;1.27;;;13.30;85.60;;;;;;5036943;28;20094;-62
2023/12/26 01:20:58;;;;;;;2.03;1.10;;;13.30;85.60;;;;;;5054454;28;20032;-63
2023/12/26 01:23:24;;;;;;;2.80;1.27;;;13.30;85.50;;;;;;5054200;28;20029;-63
2023/12/26 01:25:49;;;;;;;3.65;1.58;;;13.30;85.50;;;;;;5052971;28;20036;-63
2023/12/26 01:28:15;;;;;;;2.60;1.35;;;13.30;85.50;;;;;;5053860;28;20040;-63
2023/12/26 01:30:42;;;;;;;2.30;1.10;;;13.30;86.10;;;;;;5053432;28;20036;-62
2023/12/26 01:33:08;;;;;;;2.53;1.42;;;13.30;85.50;;;;;;5052987;28;20044;-62
2023/12/26 01:35:34;;;;;;;3.35;1.58;;;13.30;85.50;;;;;;5035961;28;20376;-62
2023/12/26 01:38:00;;;;;;;2.35;1.15;;;13.30;85.50;;;;;;5054018;28;20017;-63
2023/12/26 01:40:26;;;;;;;3.50;1.40;;;13.30;85.50;;;;;;5054304;28;20467;-63
2023/12/26 01:42:51;;;;;;;4.10;1.38;;;13.30;85.50;;;;;;5052609;28;20024;-63
2023/12/26 01:45:17;;;;;;;3.13;1.20;;;13.20;85.40;;;;;;5053014;28;20033;-62
2023/12/26 01:47:45;;;;;;;1.00;0.90;;;13.20;85.40;;;;;;5052537;28;20021;-62
2023/12/26 01:50:12;;;;;;;3.63;1.13;;;13.20;85.40;;;;;;5053663;28;20074;-62
2023/12/26 01:52:39;;;;;;;2.45;1.10;;;13.30;85.50;;;;;;5053443;28;20020;-62
2023/12/26 01:55:07;;;;;;;2.90;0.95;;;13.20;85.40;;;;;;5051918;28;20551;-62
2023/12/26 01:57:35;;;;;;;3.38;1.10;;;13.20;85.40;;;;;;5053871;28;20032;-62
2023/12/26 02:00:06;;;;;;;4.40;1.20;;;13.20;85.40;;;;;;5036541;28;20016;-62
2023/12/26 02:02:38;;;;;;;2.30;1.00;;;13.20;85.40;;;;;;5054740;28;20040;-62
2023/12/26 02:05:05;;;;;;;1.85;1.10;;;13.20;85.50;;;;;;5056296;28;20441;-62
2023/12/26 02:07:31;;;;;;;3.33;1.00;;;13.20;85.60;;;;;;5038860;28;20453;-62
2023/12/26 02:09:57;;;;;;;2.70;1.10;;;13.20;85.60;;;;;;5052980;28;20555;-62
2023/12/26 02:12:23;;;;;;;4.18;1.20;;;13.20;85.60;;;;;;5052222;28;20025;-62
2023/12/26 02:14:50;;;;;;;3.58;1.13;;;13.20;85.60;;;;;;5052328;28;20017;-63
2023/12/26 02:17:23;;;;;;;3.45;1.23;;;13.20;85.60;;;;;;5036045;28;20465;-63
2023/12/26 02:19:49;;;;;;;3.17;1.02;;;13.20;85.60;;;;;;5055980;28;20021;-62
2023/12/26 02:22:15;;;;;;;1.67;1.17;;;13.20;85.50;;;;;;5054056;28;20595;-63
2023/12/26 02:24:42;;;;;;;1.08;0.90;;;13.20;85.50;;;;;;5055759;28;20025;-62
2023/12/26 02:27:23;;;;;;;2.25;0.93;;;13.20;85.60;;;;;;5055538;28;20029;-62
2023/12/26 02:29:51;;;;;;;2.90;1.10;;;13.20;85.60;;;;;;5037783;28;20025;-62
2023/12/26 02:32:19;;;;;;;2.03;0.90;;;13.20;85.50;;;;;;5049701;28;20622;-62
2023/12/26 02:34:50;;;;;;;1.63;0.90;;;13.20;85.50;;;;;;5050278;28;20028;-62
2023/12/26 02:37:16;;;;;;;2.87;1.10;;;13.20;85.50;;;;;;5050674;28;20381;-62
2023/12/26 02:39:43;;;;;;;2.90;0.90;;;13.20;85.50;;;;;;5052907;28;20115;-63
2023/12/26 02:42:15;;;;;;;3.53;1.23;;;13.20;85.50;;;;;;5051943;28;20369;-62
2023/12/26 02:44:41;;;;;;;2.55;1.30;;;13.20;85.50;;;;;;5050269;28;20032;-62
2023/12/26 02:47:08;;;;;;;0.93;0.70;;;13.20;85.50;;;;;;5052866;28;20025;-62
2023/12/26 02:49:34;;;;;;;3.45;1.40;;;13.20;85.60;;;;;;5053356;28;20086;-62
2023/12/26 02:52:00;;;;;;;2.95;1.00;;;13.20;85.60;;;;;;5055763;28;20029;-62
2023/12/26 02:54:26;;;;;;;3.03;1.10;;;13.10;85.60;;;;;;5057138;28;20113;-62
2023/12/26 02:56:52;;;;;;;3.92;1.45;;;13.10;85.60;;;;;;5055625;28;20033;-62
2023/12/26 02:59:18;;;;;;;2.80;1.30;;;13.20;85.70;;;;;;5053586;28;20111;-62
2023/12/26 03:01:48;;;;;;;3.08;1.17;;;13.20;85.70;;;;;;5056490;28;20112;-62
2023/12/26 03:04:14;;;;;;;3.13;1.25;;;13.20;85.70;;;;;;5036813;28;20114;-62
2023/12/26 03:06:40;;;;;;;1.92;1.17;;;13.20;85.60;;;;;;5038472;28;20025;-62
2023/12/26 03:09:07;;;;;;;6.43;1.63;;;13.20;85.60;;;;;;5056415;28;20116;-62
2023/12/26 03:11:33;;;;;;;3.60;1.20;;;13.20;85.50;;;;;;5056692;28;20027;-63
2023/12/26 03:14:01;;;;;;;4.88;1.30;;;13.20;85.60;;;;;;5056527;28;20136;-62
2023/12/26 03:16:27;;;;;;;8.70;1.23;;;13.20;85.40;;;;;;5036972;28;20385;-63
2023/12/26 03:18:53;;;;;;;5.82;1.50;;;13.10;85.40;;;;;;5056047;28;20461;-62
2023/12/26 03:21:22;;;;;;;5.15;1.27;;;13.20;85.40;;;;;;5055239;28;20025;-62
2023/12/26 03:23:50;;;;;;;4.85;1.52;;;13.20;85.40;;;;;;5053731;28;20071;-62
2023/12/26 03:26:16;;;;;;;4.18;1.27;;;13.20;85.30;;;;;;5055365;28;20029;-62
2023/12/26 03:28:42;;;;;;;3.25;1.17;;;13.20;85.30;;;;;;5055397;28;20048;-62
2023/12/26 03:31:07;;;;;;;5.85;1.45;;;13.10;85.20;;;;;;5055109;28;20032;-62
2023/12/26 03:33:36;;;;;;;7.18;1.42;;;13.10;85.20;;;;;;5055011;28;20029;-62
2023/12/26 03:36:02;;;;;;;7.70;1.40;;;13.10;85.10;;;;;;5053168;28;20065;-62
2023/12/26 03:38:29;;;;;;;8.82;2.00;;;13.10;85.10;;;;;;5053525;28;20033;-62
2023/12/26 03:40:55;;;;;;;5.45;1.90;;;13.10;85.00;;;;;;5054931;28;20049;-62
2023/12/26 03:43:21;;;;;;;6.45;1.45;;;13.10;85.00;;;;;;5038281;28;20450;-62
2023/12/26 03:45:49;;;;;;;4.13;1.20;;;13.10;84.90;;;;;;5055085;28;20040;-62
2023/12/26 03:48:15;;;;;;;5.20;1.23;;;13.10;84.80;;;;;;5052037;28;20102;-62
2023/12/26 03:50:41;;;;;;;6.75;1.27;;;13.10;84.70;;;;;;5053656;28;20521;-62
2023/12/26 03:53:07;;;;;;;7.55;1.85;;;13.10;84.60;;;;;;5044746;28;20036;-62
2023/12/26 03:55:34;;;;;;;7.63;1.98;;;13.10;84.50;;;;;;5040836;28;20094;-62
2023/12/26 03:58:00;;;;;;;9.35;1.42;;;13.10;84.40;;;;;;5024027;28;20014;-62
2023/12/26 04:00:29;;;;;;;6.85;1.33;;;13.00;84.30;;;;;;5052728;28;20037;-62
2023/12/26 04:02:55;;;;;;;5.03;1.20;;;13.10;84.20;;;;;;5055372;28;20036;-62
2023/12/26 04:05:21;;;;;;;7.10;1.77;;;13.10;84.00;;;;;;5055063;28;20049;-62
2023/12/26 04:07:48;;;;;;;4.40;1.42;;;13.00;84.00;;;;;;5050926;28;20064;-62
2023/12/26 04:10:13;;;;;;;3.78;1.38;;;13.00;83.90;;;;;;5056828;28;20029;-62
2023/12/26 04:12:40;;;;;;;4.75;1.30;;;13.10;83.80;;;;;;5038786;28;20072;-63
2023/12/26 04:15:07;;;;;;;6.20;1.52;;;13.00;83.70;;;;;;5039473;28;20383;-63
2023/12/26 04:17:33;;;;;;;5.82;1.50;;;13.00;83.50;;;;;;5048690;28;20113;-62
2023/12/26 04:19:59;;;;;;;6.90;1.50;;;13.00;83.30;;;;;;5036001;28;20100;-63
2023/12/26 04:22:24;;;;;;;7.93;1.55;;;12.90;83.20;;;;;;5043095;28;20156;-63
2023/12/26 04:24:50;;;;;;;4.22;1.50;;;12.90;83.10;;;;;;5045064;28;20087;-63
2023/12/26 04:27:16;;;;;;;5.00;1.35;;;12.90;82.90;;;;;;5037791;28;20036;-63
2023/12/26 04:29:42;;;;;;;7.03;1.10;;;12.90;82.80;;;;;;5042564;28;20052;-63
2023/12/26 04:32:10;;;;;;;5.50;1.20;;;12.80;82.70;;;;;;5038792;28;20096;-63
2023/12/26 04:34:38;;;;;;;6.47;1.55;;;12.80;82.60;;;;;;5036283;28;20462;-63
2023/12/26 04:37:04;;;;;;;5.93;1.30;;;12.80;82.50;;;;;;5036602;28;20035;-63
2023/12/26 04:39:30;;;;;;;6.47;1.35;;;12.80;82.30;;;;;;5022316;28;20021;-63
2023/12/26 04:41:57;;;;;;;5.57;1.30;;;12.80;82.20;;;;;;5040828;28;20036;-63
2023/12/26 04:44:23;;;;;;;5.22;1.23;;;12.70;81.90;;;;;;5051829;28;21132;-63
2023/12/26 04:46:50;;;;;;;5.38;1.33;;;12.70;81.60;;;;;;5045147;28;20035;-62
2023/12/26 04:49:16;;;;;;;4.80;1.23;;;12.60;81.60;;;;;;5039536;28;20112;-63
2023/12/26 04:51:42;;;;;;;3.38;1.05;;;12.60;81.50;;;;;;5039556;28;20124;-63
2023/12/26 04:54:08;;;;;;;5.30;1.17;;;12.60;81.50;;;;;;5028281;28;20466;-63
2023/12/26 04:56:36;;;;;;;4.15;1.00;;;12.60;81.30;;;;;;5038764;28;20437;-62
2023/12/26 04:59:03;;;;;;;4.07;1.38;;;12.60;81.10;;;;;;5037084;28;20037;-62
2023/12/26 05:01:29;;;;;;;5.00;1.25;;;12.60;80.90;;;;;;5038946;28;20026;-63
2023/12/26 05:03:55;;;;;;;3.33;1.15;;;12.60;80.70;;;;;;5033405;28;20029;-63
2023/12/26 05:06:21;;;;;;;6.30;1.58;;;12.60;80.70;;;;;;5024422;28;20116;-63
2023/12/26 05:08:47;;;;;;;4.80;1.33;;;12.50;80.60;;;;;;5043062;28;20560;-63
2023/12/26 05:11:23;;;;;;;6.80;1.77;;;12.50;80.50;;;;;;5051516;28;20083;-62
2023/12/26 05:13:50;;;;;;;6.45;1.63;;;12.50;80.30;;;;;;5019733;28;20018;-63
2023/12/26 05:16:19;;;;;;;3.92;1.30;;;12.50;80.40;;;;;;5038110;28;20353;-63
2023/12/26 05:18:45;;;;;;;5.38;1.35;;;12.50;80.30;;;;;;5038049;28;20094;-63
2023/12/26 05:21:22;;;;;;;5.72;1.50;;;12.40;80.10;;;;;;5034248;28;20025;-62
2023/12/26 05:23:49;;;;;;;7.05;1.40;;;12.50;80.00;;;;;;5038796;28;20024;-63
2023/12/26 05:26:15;;;;;;;7.32;1.60;;;12.40;80.00;;;;;;5019763;28;20029;-63
2023/12/26 05:28:42;;;;;;;6.80;1.50;;;12.40;79.90;;;;;;5037175;28;20040;-63
2023/12/26 05:31:08;;;;;;;6.80;1.63;;;12.40;80.00;;;;;;5039942;28;20116;-63
2023/12/26 05:33:34;;;;;;;5.10;1.50;;;12.40;79.90;;;;;;5033336;28;20037;-63
2023/12/26 05:36:02;;;;;;;7.72;1.65;;;12.40;79.90;;;;;;5025472;28;20021;-63
2023/12/26 05:38:28;;;;;;;4.80;1.20;;;12.30;79.80;;;;;;5034739;28;20029;-63
2023/12/26 05:40:54;;;;;;;8.07;1.63;;;12.30;79.70;;;;;;5048360;28;21782;-63
2023/12/26 05:43:21;;;;;;;8.35;1.58;;;12.30;79.50;;;;;;5038506;28;20021;-62
2023/12/26 05:45:46;;;;;;;6.93;1.20;;;12.30;79.40;;;;;;5036881;28;20017;-63
2023/12/26 05:48:12;;;;;;;6.40;1.75;;;12.40;79.30;;;;;;5049706;28;20021;-63
2023/12/26 05:50:38;;;;;;;7.38;1.40;;;12.30;79.20;;;;;;5033888;28;20462;-62
2023/12/26 05:53:05;;;;;;;5.47;1.88;;;12.30;79.80;;;;;;5024054;28;20036;-63
2023/12/26 05:55:30;;;;;;;5.65;1.38;;;12.30;78.90;;;;;;5040829;28;20025;-63
2023/12/26 05:57:56;;;;;;;6.57;1.35;;;12.20;78.80;;;;;;5040656;28;20468;-63
2023/12/26 06:00:23;;;;;;;4.32;1.35;;;12.20;78.80;;;;;;5051624;28;20323;-62
2023/12/26 06:02:49;;;;;;;8.27;1.73;;;12.20;78.60;;;;;;5037214;28;20028;-62
2023/12/26 06:05:15;;;;;;;5.13;1.48;;;12.10;78.50;;;;;;5018761;28;20378;-62
2023/12/26 06:07:41;;;;;;;6.65;1.25;;;12.10;78.40;;;;;;5045810;28;20033;-62
2023/12/26 06:10:07;;;;;;;7.28;1.73;;;12.10;78.20;;;;;;5023217;28;20021;-63
2023/12/26 06:12:35;;;;;;;6.55;1.42;;;12.10;78.10;;;;;;5038992;28;20055;-63
2023/12/26 06:15:02;;;;;;;6.47;1.50;;;12.10;78.00;;;;;;5036995;28;20091;-63
2023/12/26 06:17:29;;;;;;;10.15;1.45;;;12.10;77.90;;;;;;5031748;28;20083;-62
2023/12/26 06:19:55;;;;;;;7.45;1.38;;;12.00;77.80;;;;;;5047884;28;20021;-63
2023/12/26 06:22:21;;;;;;;5.22;1.40;;;12.00;77.60;;;;;;5051356;28;20017;-62
2023/12/26 06:24:47;;;;;;;6.28;1.40;;;12.00;77.60;;;;;;5036558;28;20051;-63
2023/12/26 06:27:13;;;;;;;7.53;1.63;;;12.00;77.50;;;;;;5053186;28;20021;-63
2023/12/26 06:29:39;;;;;;;6.47;1.73;;;12.00;77.30;;;;;;5052876;28;20032;-63
2023/12/26 06:32:05;;;;;;;5.18;1.30;;;12.00;77.20;;;;;;5052150;28;20052;-62
2023/12/26 06:34:31;;;;;;;7.72;1.25;;;12.00;77.10;;;;;;5052778;28;20039;-63
2023/12/26 06:36:56;;;;;;;11.48;1.58;;;11.90;77.00;;;;;;5053206;28;20021;-63
2023/12/26 06:39:22;;;;;;;6.80;1.52;;;11.90;76.90;;;;;;5055181;28;20397;-63
2023/12/26 06:41:48;;;;;;;6.53;1.40;;;11.90;76.90;;;;;;5055208;28;20258;-63
2023/12/26 06:44:14;;;;;;;7.78;2.00;;;11.90;76.80;;;;;;5042654;28;20128;-62
2023/12/26 06:46:43;;;;;;;7.18;1.70;;;11.90;76.80;;;;;;5060002;28;20469;-63
2023/12/26 06:49:10;;;;;;;8.88;1.48;;;11.90;76.60;;;;;;5035214;28;20330;-64
2023/12/26 06:51:39;;;;;;;6.13;1.58;;;11.80;76.60;;;;;;5059923;28;20025;-63
2023/12/26 06:54:06;;;;;;;6.28;1.83;;;11.80;76.50;;;;;;5049489;28;20449;-63
2023/12/26 06:56:32;;;;;;;8.68;1.83;;;11.80;76.50;;;;;;5057665;28;20029;-63
2023/12/26 06:58:58;;;;;;;7.70;1.98;;;11.80;76.40;;;;;;5059346;28;20338;-64
2023/12/26 07:01:28;;;;;;;9.75;1.50;;;11.80;76.40;;;;;;5060925;28;20036;-63
2023/12/26 07:03:53;;;;;;;8.10;1.95;;;11.80;76.30;;;;;;5060387;28;20025;-63
2023/12/26 07:06:19;;;;;;;6.93;1.40;;;11.80;76.20;;;;;;5060792;28;20021;-63
2023/12/26 07:08:45;;;;;;;9.65;2.00;;;11.70;76.20;;;;;;5058588;28;20053;-63
2023/12/26 07:11:11;;;;;;;10.10;2.40;;;11.70;76.10;;;;;;5059911;28;20029;-63
2023/12/26 07:13:37;;;;;;;4.35;1.27;;;11.70;76.10;;;;;;5059452;28;20094;-63
2023/12/26 07:16:03;;;;;;;8.38;1.83;;;11.70;76.00;;;;;;5060535;28;20060;-62
2023/12/26 07:18:28;;;;;;;7.45;1.65;;;11.70;75.90;;;;;;5059589;28;20040;-62
2023/12/26 07:20:54;;;;;;;9.23;1.85;;;11.70;75.70;;;;;;5059049;28;20056;-63
2023/12/26 07:23:20;;;;;;;6.85;1.67;;;11.70;75.60;;;;;;5060939;28;20087;-62
2023/12/26 07:25:46;;;;;;;8.52;1.73;;;11.70;75.50;;;;;;5060709;28;20104;-62
2023/12/26 07:28:14;;;;;;;7.72;2.08;;;11.60;75.50;;;;;;5059845;28;20033;-62
2023/12/26 07:30:40;;;;;;;8.38;1.65;;;11.60;75.50;;;;;;5059978;28;20518;-62
2023/12/26 07:33:06;;;;;;;6.63;1.55;;;11.60;75.50;;;;;;5060860;28;20388;-63
2023/12/26 07:35:37;;;;;;;7.82;1.48;;;11.60;75.50;;;;;;5070984;28;20021;-63
2023/12/26 07:38:04;;;;;;;5.20;1.50;;;11.60;75.50;;;;;;5068159;28;20495;-63
2023/12/26 07:40:31;;;;;;;6.72;1.33;;;11.50;75.40;;;;;;5066181;28;20040;-63
2023/12/26 07:42:57;;;;;;;7.90;1.67;;;11.50;75.40;;;;;;5068736;28;20076;-63
2023/12/26 07:45:25;;;;;;;9.25;1.75;;;11.50;75.20;;;;;;5061080;28;20049;-62
2023/12/26 07:47:52;;;;;;;9.55;1.77;;;11.50;75.10;;;;;;5063498;28;20116;-63
2023/12/26 07:50:18;;;;;;;9.02;1.55;;;11.50;75.00;;;;;;5048475;28;20094;-63
2023/12/26 07:52:44;;;;;;;7.10;1.52;;;11.50;74.80;;;;;;5073830;28;20044;-63
2023/12/26 07:55:11;;;;;;;8.80;1.42;;;11.50;74.70;;;;;;5071649;28;20037;-63
2023/12/26 07:57:37;;;;;;;11.40;2.00;;;11.60;74.60;;;;;;5049270;28;20091;-62
2023/12/26 08:00:04;;;;;;;6.85;1.42;;;11.50;74.50;;;;;;5064498;28;20071;-62
2023/12/26 08:02:38;;;;;;;4.72;1.52;;;11.50;74.40;;;;;;5065379;28;20032;-62
2023/12/26 08:05:04;;;;;;;7.28;1.55;;;11.50;74.30;;;;;;5061394;28;20452;-63
2023/12/26 08:07:29;;;;;;;6.78;1.60;;;11.50;74.20;;;;;;5057451;28;20083;-63
2023/12/26 08:09:55;;;;;;;6.75;1.13;;;11.50;74.20;;;;;;5054923;28;20029;-63
2023/12/26 08:12:21;;;;;;;6.60;1.70;;;11.50;74.10;;;;;;5050602;28;20446;-63
2023/12/26 08:14:47;;;;;;;9.23;1.70;;;11.50;73.90;;;;;;5055103;28;20368;-62
2023/12/26 08:17:12;;;;;;;9.20;1.90;;;11.50;73.80;;;;;;5047579;28;20033;-63
2023/12/26 08:19:38;;;;;;;8.77;1.98;;;11.60;73.80;;;;;;5051626;28;20090;-62
2023/12/26 08:22:04;;;;;;;6.88;1.20;;;11.60;73.60;;;;;;5051850;28;20040;-63
2023/12/26 08:24:30;;;;;;;7.60;1.58;;;11.60;73.50;;;;;;5055633;28;20032;-63
2023/12/26 08:26:57;;;;;;;8.20;1.92;;;11.60;73.30;;;;;;5052614;28;20376;-63
2023/12/26 08:29:24;;;;;;;7.85;1.77;;;11.60;73.10;;;;;;5050297;28;20039;-63
2023/12/26 08:31:49;;;;;;;6.93;1.50;;;11.60;72.90;;;;;;5055255;28;20697;-63
2023/12/26 08:34:15;;;;;;;8.82;1.65;;;11.60;72.80;;;;;;5054301;28;20106;-62
2023/12/26 08:36:41;;;;;;;5.82;1.50;;;11.70;72.70;;;;;;5055786;28;20028;-62
2023/12/26 08:39:07;;;;;;;7.47;1.40;;;11.70;72.60;;;;;;5055737;28;20025;-63
2023/12/26 08:41:32;;;;;;;6.38;1.20;;;11.70;72.50;;;;;;5055375;28;20044;-63
2023/12/26 08:43:58;;;;;;;8.77;1.55;;;11.70;72.40;;;;;;5054069;28;20098;-63
2023/12/26 08:46:24;;;;;;;7.22;1.38;;;11.70;72.30;;;;;;5053796;28;20434;-63
2023/12/26 08:48:50;;;;;;;7.75;1.50;;;11.70;72.20;;;;;;5055830;28;20071;-63
2023/12/26 08:51:16;;;;;;;5.80;1.30;;;11.70;72.20;;;;;;5055583;28;20048;-62
2023/12/26 08:53:42;;;;;;;5.97;1.10;;;11.70;72.30;;;;;;5054381;28;20072;-63
2023/12/26 08:56:07;;;;;;;5.05;1.75;;;11.80;72.30;;;;;;5055211;28;20102;-62
2023/12/26 08:58:33;;;;;;;7.57;1.52;;;11.90;72.10;;;;;;5053965;28;20033;-62
2023/12/26 09:01:00;;;;;;;6.20;1.95;;;12.00;72.00;;;;;;5054010;28;20025;-63
2023/12/26 09:03:27;;;;;;;8.35;1.95;;;12.00;71.80;;;;;;5055107;28;20021;-63
2023/12/26 09:05:53;;;;;;;6.97;1.60;;;12.10;71.80;;;;;;5053871;28;20052;-63
2023/12/26 09:08:19;;;;;;;6.22;1.80;;;12.10;71.70;;;;;;5054949;28;20116;-63
2023/12/26 09:10:44;;;;;;;6.70;1.73;;;12.20;71.70;;;;;;5055200;28;20105;-62
2023/12/26 09:13:11;;;;;;;5.05;1.50;;;12.20;71.60;;;;;;5054947;28;20495;-63
2023/12/26 09:15:37;;;;;;;6.90;1.30;;;12.30;71.50;;;;;;5053932;28;20029;-63
2023/12/26 09:18:03;;;;;;;7.60;1.40;;;12.30;71.40;;;;;;5055231;28;20100;-63
2023/12/26 09:20:29;;;;;;;6.95;1.38;;;12.30;71.50;;;;;;5054836;28;20388;-62
2023/12/26 09:22:55;;;;;;;5.20;1.15;;;12.20;71.60;;;;;;5054890;28;20021;-62
2023/12/26 09:25:20;;;;;;;8.30;1.90;;;12.10;71.70;;;;;;5033648;28;20438;-62
2023/12/26 09:27:46;;;;;;;5.45;1.30;;;12.10;71.90;;;;;;5053705;28;20369;-63
2023/12/26 09:30:13;;;;;;;8.13;1.70;;;12.00;71.90;;;;;;5036985;28;20024;-63
2023/12/26 09:32:39;;;;;;;4.53;1.30;;;12.00;72.10;;;;;;5054826;28;20029;-63
2023/12/26 09:35:05;;;;;;;8.45;1.80;;;12.00;72.30;;;;;;5052670;28;20456;-63
2023/12/26 09:37:35;;;;;;;5.32;1.60;;;12.00;72.40;;;;;;5054435;28;20080;-63
2023/12/26 09:40:02;;;;;;;9.00;1.63;;;12.00;72.60;;;;;;5054288;28;20036;-63
2023/12/26 09:42:29;;;;;;;7.03;2.00;;;12.00;72.60;;;;;;5053966;28;20167;-63
2023/12/26 09:44:55;;;;;;;7.30;1.65;;;12.10;72.60;;;;;;5054187;28;20033;-62
2023/12/26 09:47:22;;;;;;;9.75;1.80;;;12.10;72.50;;;;;;5052581;28;20033;-62
2023/12/26 09:49:50;;;;;;;7.40;1.55;;;12.10;72.30;;;;;;5055499;28;20147;-63
2023/12/26 09:52:16;;;;;;;11.20;1.70;;;12.20;72.30;;;;;;5063063;28;20122;-63
2023/12/26 09:54:44;;;;;;;8.77;1.58;;;12.20;72.20;;;;;;5055857;28;20029;-63
2023/12/26 09:57:10;;;;;;;11.07;2.17;;;12.30;72.10;;;;;;5053687;28;20040;-62
2023/12/26 09:59:37;;;;;;;7.00;2.17;;;12.30;72.00;;;;;;5066448;28;20017;-63
2023/12/26 10:02:06;;;;;;;7.00;1.73;;;12.40;72.00;;;;;;5047112;28;20025;-63
2023/12/26 10:04:32;;;;;;;6.63;1.83;;;12.50;71.80;;;;;;5051586;28;20087;-63
2023/12/26 10:06:57;;;;;;;6.55;1.70;;;12.50;71.50;;;;;;5035584;28;20025;-63
2023/12/26 10:09:23;;;;;;;8.07;1.83;;;12.70;71.30;;;;;;5018392;28;20082;-63
2023/12/26 10:11:52;;;;;;;9.15;1.80;;;12.80;70.90;;;;;;5043994;28;20029;-63
2023/12/26 10:14:30;;;;;;;9.98;2.17;;;13.00;70.50;;;;;;5037613;28;20029;-63
2023/12/26 10:16:57;;;;;;;9.18;2.00;;;13.10;70.10;;;;;;5037499;28;20152;-66
2023/12/26 10:19:24;;;;;;;9.77;2.67;;;13.30;69.90;;;;;;5035157;28;20029;-63
2023/12/26 10:21:50;;;;;;;9.70;2.15;;;13.40;69.60;;;;;;5038511;28;20079;-63
2023/12/26 10:24:20;;;;;;;5.85;1.77;;;13.50;69.30;;;;;;5035684;28;20033;-62
2023/12/26 10:26:48;;;;;;;10.23;2.20;;;13.60;69.00;;;;;;5034373;28;20400;-63
2023/12/26 10:29:15;;;;;;;8.30;1.60;;;13.70;68.60;;;;;;5044258;28;20021;-63
2023/12/26 10:31:42;;;;;;;9.55;1.63;;;13.80;68.40;;;;;;5036078;28;20045;-62
2023/12/26 10:34:19;;;;;;;8.23;1.60;;;13.90;68.20;;;;;;5034988;28;20167;-63
2023/12/26 10:36:49;;;;;;;9.98;2.25;;;14.00;67.80;;;;;;5036701;28;20033;-62
2023/12/26 10:39:16;;;;;;;9.63;1.85;;;14.00;67.60;;;;;;5036792;28;20024;-62
2023/12/26 10:41:49;;;;;;;7.32;2.13;;;14.00;67.60;;;;;;5046716;28;20374;-63
2023/12/26 10:44:16;;;;;;;7.72;1.80;;;14.00;67.50;;;;;;5037988;28;20072;-62
2023/12/26 10:46:43;;;;;;;11.02;1.98;;;14.00;67.20;;;;;;5040695;28;20029;-63
2023/12/26 10:49:20;;;;;;;8.70;2.25;;;14.00;67.10;;;;;;5038543;28;20096;-62
2023/12/26 10:51:49;;;;;;;8.02;1.80;;;14.00;66.80;;;;;;5045480;28;20048;-63
2023/12/26 10:54:20;;;;;;;9.90;2.17;;;14.00;66.90;;;;;;5044037;28;20034;-63
2023/12/26 10:56:49;;;;;;;8.38;1.52;;;14.00;66.80;;;;;;5035661;28;20461;-63
2023/12/26 13:52:54;;;;;;;5.78;1.55;;;12.30;66.80;;;;;;5054250;28;20047;-63
2023/12/26 13:55:57;;;;;;;6.28;1.33;;;12.30;66.80;;;;;;5055214;28;20017;-63
2023/12/26 13:59:01;;;;;;;7.65;1.55;;;12.30;66.60;;;;;;5054531;28;20029;-63
2023/12/26 14:02:04;;;;;;;4.72;1.58;;;12.30;66.60;;;;;;5053334;28;20025;-63
2023/12/26 14:05:07;;;;;;;6.55;1.38;;;12.40;66.40;;;;;;5049078;28;20029;-63
2023/12/26 14:08:11;;;;;;;6.85;1.67;;;12.40;66.40;;;;;;5053870;28;20025;-63
2023/12/26 14:11:14;;;;;;;8.02;1.50;;;12.40;66.10;;;;;;5052299;28;20041;-63
2023/12/26 14:14:17;;;;;;;4.93;1.00;;;12.30;65.90;;;;;;5054888;28;20494;-63
2023/12/26 14:17:20;;;;;;;6.85;1.40;;;12.30;65.90;;;;;;5053961;28;20029;-62
2023/12/26 14:20:23;;;;;;;7.35;1.40;;;12.30;65.70;;;;;;5045789;28;20052;-63
2023/12/26 14:23:28;;;;;;;9.02;1.75;;;12.30;65.70;;;;;;5048740;28;20036;-63
2023/12/26 14:26:33;;;;;;;8.00;1.63;;;12.30;65.60;;;;;;5042375;28;20063;-63
2023/12/26 14:29:36;;;;;;;5.05;1.25;;;12.30;65.60;;;;;;5054715;28;20037;-63
2023/12/26 14:32:39;;;;;;;4.07;1.52;;;12.30;65.70;;;;;;5054350;28;20037;-63
2023/12/26 14:35:42;;;;;;;9.40;1.33;;;12.30;65.60;;;;;;5043741;28;20037;-63
2023/12/26 14:38:45;;;;;;;7.05;1.75;;;12.30;65.60;;;;;;5042720;28;20029;-63
2023/12/26 14:41:11;;;;;;;5.03;1.58;;;12.30;65.60;;;;;;5053451;28;20095;-62
2023/12/26 14:43:36;;;;;;;6.20;1.48;;;12.30;65.70;;;;;;5054552;28;20433;-63
2023/12/26 14:46:02;;;;;;;6.00;1.33;;;12.30;65.60;;;;;;5053458;28;20501;-63
2023/12/26 14:48:28;;;;;;;5.50;1.40;;;12.30;65.60;;;;;;5054413;28;20463;-63
2023/12/26 14:50:54;;;;;;;6.03;1.33;;;12.30;65.60;;;;;;5054365;28;20048;-63
2023/12/26 14:53:20;;;;;;;6.65;1.10;;;12.30;65.60;;;;;;5054164;28;20101;-63
2023/12/26 14:55:45;;;;;;;6.30;1.40;;;12.30;65.60;;;;;;5052296;28;20032;-63
2023/12/26 14:58:11;;;;;;;5.80;1.73;;;12.30;65.70;;;;;;5054109;28;20083;-64
2023/12/26 15:00:37;;;;;;;5.43;1.40;;;12.30;65.70;;;;;;5054460;28;20033;-63
2023/12/26 15:03:03;;;;;;;5.55;1.50;;;12.30;65.80;;;;;;5038892;28;20116;-63
2023/12/26 15:05:33;;;;;;;5.53;1.60;;;12.30;65.90;;;;;;5058098;28;20122;-64
2023/12/26 15:08:00;;;;;;;6.15;1.58;;;12.30;65.90;;;;;;5056117;28;20032;-63
2023/12/26 15:10:26;;;;;;;6.60;1.98;;;12.30;66.00;;;;;;5058335;28;20371;-63
2023/12/26 15:12:52;;;;;;;7.28;2.38;;;12.30;66.00;;;;;;5058296;28;20033;-63
2023/12/26 15:15:18;;;;;;;5.25;1.60;;;12.20;66.00;;;;;;5057992;28;20033;-63
2023/12/26 15:17:43;;;;;;;10.50;2.17;;;12.20;66.10;;;;;;5057147;28;20048;-64
2023/12/26 15:20:10;;;;;;;9.02;1.83;;;12.30;66.20;;;;;;5056561;28;20025;-63
2023/12/26 15:22:35;;;;;;;5.43;1.60;;;12.30;66.20;;;;;;5055877;28;20025;-63
2023/12/26 15:25:01;;;;;;;5.65;1.95;;;12.30;66.20;;;;;;5066957;28;20407;-64
2023/12/26 15:27:27;;;;;;;5.20;1.60;;;12.20;66.20;;;;;;5077669;28;20120;-63
2023/12/26 15:29:53;;;;;;;5.90;1.92;;;12.20;66.30;;;;;;5077689;28;20033;-63
2023/12/26 15:32:18;;;;;;;8.10;2.42;;;12.20;66.40;;;;;;5072915;28;20354;-63
2023/12/26 15:34:44;;;;;;;7.50;1.80;;;12.20;66.50;;;;;;5077517;28;20349;-63
2023/12/26 15:37:10;;;;;;;7.30;2.10;;;12.20;66.60;;;;;;5076650;28;20453;-63
2023/12/26 15:39:36;;;;;;;5.18;1.42;;;12.20;66.50;;;;;;5077547;28;20036;-63
2023/12/26 15:42:02;;;;;;;5.05;1.52;;;12.20;66.70;;;;;;5077850;28;20349;-63
2023/12/26 15:44:28;;;;;;;6.47;2.17;;;12.20;66.60;;;;;;5077403;28;20024;-63